»·PEaware :: NRL1656 KRDD-KOAK

NRL1656 :: KRDD-KOAK

FLIGHT INFORMATION

Flight Status: Arrived
Operator: Unknown
More flights by this operator :: More flights under this callsign
Pilot: Anonymous 30260 (30260)
Aircraft: BOEING 737-300
(B733)
More flights by this aircraft type
Origin: KRDD Redding Mun
United States
Destination: KOAK Metro Oakland Intl
United States
More flights between these airports :: More routes between these airports
Route: +HOMAN3 RBL SPAMY WNDSR2
File this flight plan on PilotEdge
Remarks:
Altitude:
(Current/Filed)
33,000ft
Speed:
(Current/Filed)
454kts
Departed: 06-Nov-20 09:28 AM
Arrived: 06-Nov-20 10:16 AM
Distance/Time
Traveled:
168nm/0:47
Distance/Time
To Go:
Arrived

Flight Plot

Page will automatically refresh every two minutes.

Flight plan parsing failed; only flown route is shown


Map Options




Map Legend


Flown Route
Filed Route
Departure Airport
Arrival Airport
Navaid (VOR, NDB)
Fix

Horizontal Profiles

Position Reports

Time Latitude Longitude Heading Altitude Ground
Speed
06-Nov-20 08:59 40.504886 -122.298987 314 496ft 0kts
06-Nov-20 09:00 40.504886 -122.298987 314 496ft 0kts
06-Nov-20 09:01 40.504886 -122.298987 314 496ft 0kts
06-Nov-20 09:02 40.504886 -122.298987 315 496ft 0kts
06-Nov-20 09:03 40.504886 -122.298987 314 496ft 0kts
06-Nov-20 09:04 40.504886 -122.298987 314 496ft 0kts
06-Nov-20 09:05 40.504886 -122.298987 314 496ft 0kts
06-Nov-20 09:06 40.504886 -122.298987 314 496ft 0kts
06-Nov-20 09:07 40.504886 -122.298987 314 496ft 0kts
06-Nov-20 09:08 40.504886 -122.298987 314 496ft 0kts
06-Nov-20 09:09 40.504886 -122.298987 314 496ft 0kts
06-Nov-20 09:10 40.504886 -122.298987 314 496ft 0kts
06-Nov-20 09:11 40.504886 -122.298987 314 496ft 0kts
06-Nov-20 09:12 40.504886 -122.298987 315 496ft 0kts
06-Nov-20 09:13 40.504886 -122.298987 314 496ft 0kts
06-Nov-20 09:14 40.504886 -122.298987 314 496ft 0kts
06-Nov-20 09:15 40.504886 -122.298987 314 496ft 0kts
06-Nov-20 09:16 40.504886 -122.298987 314 496ft 0kts
06-Nov-20 09:17 40.504886 -122.298987 315 496ft 0kts
06-Nov-20 09:18 40.504886 -122.298987 315 496ft 0kts
06-Nov-20 09:20 40.504886 -122.298987 314 496ft 0kts
06-Nov-20 09:21 40.504886 -122.298987 314 496ft 0kts
06-Nov-20 09:22 40.504886 -122.298987 314 496ft 0kts
06-Nov-20 09:23 40.504968 -122.299066 345 496ft 0kts
06-Nov-20 09:24 40.504242 -122.298218 174 496ft 9kts
06-Nov-20 09:25 40.502025 -122.296087 135 495ft 0kts
06-Nov-20 09:26 40.502021 -122.296082 135 495ft 0kts
06-Nov-20 09:27 40.501748 -122.294883 4 493ft 6kts
06-Nov-20 09:28 40.504025 -122.294889 359 496ft 70kts
06-Nov-20 09:29 40.540718 -122.290739 33 2154ft 147kts
06-Nov-20 09:30 40.515732 -122.251605 168 3692ft 219kts
06-Nov-20 09:31 40.455324 -122.220645 140 6245ft 265kts
06-Nov-20 09:32 40.398332 -122.174440 206 9530ft 253kts
06-Nov-20 09:33 40.337873 -122.203062 163 12279ft 266kts
06-Nov-20 09:34 40.264850 -122.208561 186 14862ft 280kts
06-Nov-20 09:34 40.196193 -122.219805 187 16655ft 303kts
06-Nov-20 09:36 40.097924 -122.236975 193 19698ft 307kts
06-Nov-20 09:36 40.028870 -122.264282 197 21633ft 311kts
06-Nov-20 09:38 39.929252 -122.304091 198 24132ft 316kts
06-Nov-20 09:39 39.842881 -122.338367 198 24843ft 319kts
06-Nov-20 09:39 39.772601 -122.366231 198 24827ft 318kts
06-Nov-20 09:41 39.673478 -122.405465 198 24828ft 318kts
06-Nov-20 09:41 39.602864 -122.433349 198 24820ft 322kts
06-Nov-20 09:43 39.500309 -122.473741 198 24863ft 332kts
06-Nov-20 09:43 39.426836 -122.502597 198 24873ft 332kts
06-Nov-20 09:44 39.337529 -122.537589 198 24887ft 331kts
06-Nov-20 09:45 39.248810 -122.572258 198 24915ft 331kts
06-Nov-20 09:46 39.157574 -122.585231 178 24323ft 339kts
06-Nov-20 09:47 39.065583 -122.571760 178 22673ft 330kts
06-Nov-20 09:48 38.975125 -122.551858 174 21063ft 331kts
06-Nov-20 09:49 38.884906 -122.529201 175 19577ft 332kts
06-Nov-20 09:50 38.795381 -122.506803 175 18298ft 325kts
06-Nov-20 09:51 38.707458 -122.484873 175 17001ft 319kts
06-Nov-20 09:52 38.621159 -122.469270 179 15708ft 311kts
06-Nov-20 09:53 38.535379 -122.456221 179 14402ft 306kts
06-Nov-20 09:54 38.451514 -122.443437 178 13103ft 301kts
06-Nov-20 09:55 38.371554 -122.431238 179 11796ft 276kts
06-Nov-20 09:56 38.298300 -122.420107 179 10580ft 256kts
06-Nov-20 09:57 38.227598 -122.409428 179 9334ft 255kts
06-Nov-20 09:58 38.156562 -122.398605 179 8325ft 257kts
06-Nov-20 09:59 38.082427 -122.387248 180 7282ft 256kts
06-Nov-20 10:00 38.013833 -122.371430 152 6976ft 259kts
06-Nov-20 10:01 37.955452 -122.315923 150 6502ft 262kts
06-Nov-20 10:02 37.897099 -122.260221 147 5893ft 261kts
06-Nov-20 10:03 37.837281 -122.203446 146 5360ft 264kts
06-Nov-20 10:04 37.778144 -122.142833 130 5033ft 248kts
06-Nov-20 10:05 37.734830 -122.072765 130 4998ft 243kts
06-Nov-20 10:06 37.693078 -122.004713 128 5002ft 241kts
06-Nov-20 10:07 37.646586 -121.946875 182 4639ft 225kts
06-Nov-20 10:08 37.599098 -121.984662 222 4010ft 183kts
06-Nov-20 10:09 37.586279 -122.037261 283 4007ft 157kts
06-Nov-20 10:10 37.613604 -122.081073 307 2858ft 161kts
06-Nov-20 10:11 37.640498 -122.123027 309 1764ft 138kts
06-Nov-20 10:12 37.665257 -122.160209 308 808ft 124kts
06-Nov-20 10:13 37.688216 -122.194130 308 416ft 125kts
06-Nov-20 10:14 37.708249 -122.224378 311 10ft 66kts
06-Nov-20 10:15 37.712402 -122.230289 324 10ft 18kts
06-Nov-20 10:16 37.713990 -122.229265 130 10ft 17kts
06-Nov-20 10:17 37.711012 -122.224313 66 10ft 14kts
06-Nov-20 10:18 37.712229 -122.220947 130 10ft 13kts
06-Nov-20 10:19 37.710085 -122.219462 208 10ft 6kts
06-Nov-20 10:20 37.709912 -122.219623 218 10ft 0kts
06-Nov-20 10:21 37.709912 -122.219623 218 10ft 0kts
06-Nov-20 10:22 37.709912 -122.219623 218 10ft 0kts
06-Nov-20 10:23 37.709912 -122.219623 218 10ft 0kts
06-Nov-20 10:24 37.709912 -122.219623 218 10ft 0kts

Navigation Log

Ident Type
Flight plan parsing failed, navigation log unavailable